Time;durP1;ratioP1;P1;durP2;ratioP2;P2;SDS_P1;SDS_P2;PMS_P1;PMS_P2;Temp;Humidity;BMP_temperature;BMP_pressure;BME280_temperature;BME280_humidity;BME280_pressure;Samples;Min_cycle;Max_cycle;Signal;HPM_P1;HPM_P2
2022/07/24 00:00:28;;;;;;;8.20;6.35;;;27.10;99.90;;;;;;4133598;28;20050;-65
2022/07/24 00:02:35;;;;;;;9.63;6.80;;;27.00;99.90;;;;;;4135359;28;20162;-67
2022/07/24 00:04:40;;;;;;;9.60;5.65;;;27.00;99.90;;;;;;4132595;28;20606;-66
2022/07/24 00:06:48;;;;;;;7.65;5.60;;;27.00;99.90;;;;;;4133700;28;20057;-66
2022/07/24 00:08:52;;;;;;;7.13;5.40;;;27.00;99.90;;;;;;4136187;28;20078;-66
2022/07/24 00:10:57;;;;;;;10.70;5.18;;;27.20;99.90;;;;;;4131565;28;20053;-67
2022/07/24 00:13:04;;;;;;;5.25;4.47;;;27.30;99.90;;;;;;4135076;28;20429;-66
2022/07/24 00:15:11;;;;;;;5.85;3.80;;;27.40;99.90;;;;;;4133527;28;20511;-66
2022/07/24 00:17:15;;;;;;;6.85;4.00;;;27.50;99.90;;;;;;4135351;28;20041;-66
2022/07/24 00:19:20;;;;;;;5.13;3.75;;;27.60;99.90;;;;;;4129002;28;20046;-66
2022/07/24 00:21:24;;;;;;;4.65;3.25;;;27.60;99.90;;;;;;4130629;28;20034;-66
2022/07/24 00:23:30;;;;;;;6.57;3.40;;;27.50;99.90;;;;;;4127259;28;20054;-65
2022/07/24 00:25:38;;;;;;;4.82;3.40;;;27.40;99.90;;;;;;4126352;28;20080;-65
2022/07/24 00:27:43;;;;;;;6.30;3.33;;;27.50;99.90;;;;;;4122164;28;20556;-66
2022/07/24 00:29:48;;;;;;;7.07;3.70;;;27.70;99.90;;;;;;4133184;28;20050;-66
2022/07/24 00:31:54;;;;;;;6.90;3.90;;;27.80;99.90;;;;;;4133818;28;20493;-65
2022/07/24 00:34:03;;;;;;;6.75;4.00;;;27.80;99.90;;;;;;4136775;28;20057;-67
2022/07/24 00:36:12;;;;;;;6.70;3.67;;;27.90;99.90;;;;;;4133170;28;20108;-66
2022/07/24 00:38:22;;;;;;;8.30;3.92;;;27.90;99.90;;;;;;4134871;28;20049;-66
2022/07/24 00:40:31;;;;;;;7.45;3.20;;;28.00;99.90;;;;;;4130228;28;20073;-65
2022/07/24 00:42:36;;;;;;;8.07;2.85;;;27.80;99.90;;;;;;4134610;28;20138;-66
2022/07/24 00:44:41;;;;;;;3.22;2.63;;;27.90;99.90;;;;;;4135744;28;20128;-66
2022/07/24 00:46:48;;;;;;;4.53;2.70;;;28.10;99.90;;;;;;4133787;28;20065;-65
2022/07/24 00:48:59;;;;;;;5.78;2.95;;;28.10;99.90;;;;;;4132702;28;20034;-65
2022/07/24 00:51:05;;;;;;;9.55;3.33;;;28.20;99.90;;;;;;4133194;28;20085;-65
2022/07/24 00:53:10;;;;;;;5.47;2.83;;;28.20;99.90;;;;;;4135953;28;20046;-67
2022/07/24 00:55:15;;;;;;;4.13;2.70;;;28.30;99.90;;;;;;4133588;28;20037;-65
2022/07/24 00:57:21;;;;;;;6.25;2.60;;;28.30;99.90;;;;;;4129325;28;20104;-66
2022/07/24 00:59:33;;;;;;;3.20;2.33;;;28.40;99.90;;;;;;4128045;28;20050;-65
2022/07/24 01:01:54;;;;;;;4.55;2.83;;;28.40;99.90;;;;;;4130515;28;20049;-65
2022/07/24 01:04:03;;;;;;;4.88;2.90;;;28.50;99.90;;;;;;4135611;28;20049;-66
2022/07/24 01:06:11;;;;;;;4.93;2.83;;;28.50;99.90;;;;;;4139872;28;20058;-66
2022/07/24 01:08:22;;;;;;;4.68;2.83;;;28.60;99.90;;;;;;4137952;28;20646;-67
2022/07/24 01:10:29;;;;;;;4.68;2.70;;;28.60;99.90;;;;;;4130971;28;20034;-66
2022/07/24 01:12:37;;;;;;;6.60;2.97;;;28.80;99.90;;;;;;4129632;28;20042;-65
2022/07/24 01:14:41;;;;;;;8.73;3.92;;;28.90;99.90;;;;;;4135293;28;20615;-65
2022/07/24 01:16:48;;;;;;;9.88;3.35;;;29.00;99.90;;;;;;4136018;28;20056;-65
2022/07/24 01:18:56;;;;;;;7.38;2.83;;;29.10;99.90;;;;;;4137396;28;20042;-69
2022/07/24 01:21:08;;;;;;;4.50;2.90;;;29.20;99.90;;;;;;4135488;28;20053;-68
2022/07/24 01:23:13;;;;;;;4.00;2.38;;;29.20;99.90;;;;;;4137412;28;20042;-68
2022/07/24 01:25:18;;;;;;;5.22;2.80;;;29.30;99.90;;;;;;4135517;28;20050;-68
2022/07/24 01:27:23;;;;;;;4.65;2.85;;;29.30;99.90;;;;;;4136123;28;20151;-69
2022/07/24 01:29:30;;;;;;;4.85;2.95;;;29.40;99.90;;;;;;4129269;28;20101;-67
2022/07/24 01:31:35;;;;;;;4.13;2.70;;;29.50;99.90;;;;;;4134848;28;20060;-67
2022/07/24 01:33:40;;;;;;;5.63;2.60;;;29.50;99.90;;;;;;4136786;28;20041;-67
2022/07/24 01:35:48;;;;;;;4.43;2.55;;;29.50;99.90;;;;;;4134832;28;20464;-66
2022/07/24 01:37:54;;;;;;;4.72;2.70;;;29.70;99.90;;;;;;4138965;28;20038;-67
2022/07/24 01:39:59;;;;;;;5.53;2.45;;;29.70;99.90;;;;;;4132353;28;20041;-68
2022/07/24 01:42:05;;;;;;;4.60;2.30;;;29.80;99.90;;;;;;4133929;28;20038;-68
2022/07/24 01:44:09;;;;;;;4.18;2.50;;;29.90;99.90;;;;;;4131147;28;20152;-67
2022/07/24 01:46:14;;;;;;;5.50;2.40;;;29.90;99.90;;;;;;4134488;28;20054;-68
2022/07/24 01:48:21;;;;;;;3.20;2.30;;;30.00;99.90;;;;;;4138155;28;20041;-67
2022/07/24 01:50:26;;;;;;;3.58;2.10;;;30.10;99.90;;;;;;4139345;28;20038;-67
2022/07/24 01:52:30;;;;;;;4.07;2.05;;;30.20;99.90;;;;;;4135643;28;20125;-68
2022/07/24 01:54:35;;;;;;;4.15;2.33;;;30.30;99.90;;;;;;4133544;28;20109;-67
2022/07/24 01:56:40;;;;;;;2.47;1.90;;;30.30;99.90;;;;;;4129938;28;20374;-67
2022/07/24 01:58:45;;;;;;;3.78;2.40;;;30.40;99.90;;;;;;4127627;28;20049;-67
2022/07/24 02:00:49;;;;;;;5.70;2.70;;;30.40;99.90;;;;;;4130622;28;20050;-69
2022/07/24 02:02:54;;;;;;;3.80;2.47;;;30.20;99.90;;;;;;4132818;28;20061;-67
2022/07/24 02:04:59;;;;;;;4.72;2.42;;;30.10;99.90;;;;;;4129077;28;20076;-67
2022/07/24 02:07:03;;;;;;;3.85;2.40;;;30.10;99.90;;;;;;4132158;28;20038;-66
2022/07/24 02:09:08;;;;;;;4.93;2.50;;;30.10;99.90;;;;;;4129059;28;20389;-67
2022/07/24 02:11:12;;;;;;;4.00;2.25;;;29.80;99.90;;;;;;4131786;28;20038;-67
2022/07/24 02:13:25;;;;;;;3.40;2.42;;;29.90;99.90;;;;;;4129952;28;20046;-67
2022/07/24 02:15:34;;;;;;;5.18;2.60;;;30.20;99.90;;;;;;4128692;28;20481;-66
2022/07/24 02:17:44;;;;;;;4.18;2.30;;;30.40;99.90;;;;;;4128660;28;20563;-68
2022/07/24 02:19:51;;;;;;;3.90;2.20;;;30.60;99.90;;;;;;4128956;28;20516;-68
2022/07/24 02:21:55;;;;;;;7.70;3.30;;;30.80;99.90;;;;;;4130622;28;20050;-69
2022/07/24 02:24:00;;;;;;;4.55;2.60;;;30.90;99.90;;;;;;4130993;28;20646;-68
2022/07/24 02:26:05;;;;;;;5.90;2.67;;;31.00;99.90;;;;;;4129302;28;20413;-68
2022/07/24 02:28:14;;;;;;;4.85;2.42;;;31.20;99.90;;;;;;4128521;28;20560;-68
2022/07/24 02:30:21;;;;;;;4.90;2.88;;;31.30;99.90;;;;;;4150207;28;20853;-68
2022/07/24 02:32:26;;;;;;;4.13;2.50;;;31.40;99.90;;;;;;4127607;28;20125;-68
2022/07/24 02:34:32;;;;;;;4.05;2.20;;;31.30;99.90;;;;;;4127427;28;20048;-68
2022/07/24 02:36:37;;;;;;;3.15;2.20;;;31.20;99.90;;;;;;4128671;28;20468;-67
2022/07/24 02:38:42;;;;;;;3.20;2.38;;;30.90;99.90;;;;;;4137119;28;20481;-68
2022/07/24 02:40:48;;;;;;;3.85;2.13;;;30.80;99.90;;;;;;4137379;28;20057;-69
2022/07/24 02:42:53;;;;;;;5.82;2.28;;;30.80;99.90;;;;;;4134337;28;20037;-68
2022/07/24 02:45:00;;;;;;;4.75;2.40;;;31.10;99.90;;;;;;4120032;28;20133;-66
2022/07/24 02:47:05;;;;;;;5.22;2.50;;;31.30;99.90;;;;;;4136494;28;20072;-67
2022/07/24 02:49:09;;;;;;;3.75;2.47;;;31.60;99.90;;;;;;4136898;28;20081;-68
2022/07/24 02:51:14;;;;;;;5.80;2.70;;;31.70;99.90;;;;;;4134438;28;20041;-69
2022/07/24 02:53:24;;;;;;;3.90;2.13;;;31.70;99.90;;;;;;4136005;28;20441;-69
2022/07/24 02:55:28;;;;;;;3.35;2.10;;;31.60;99.90;;;;;;4135898;28;20450;-69
2022/07/24 02:57:36;;;;;;;3.28;2.20;;;31.40;99.90;;;;;;4130356;28;20137;-67
2022/07/24 02:59:49;;;;;;;3.25;2.38;;;31.10;99.90;;;;;;4138785;28;20041;-68
2022/07/24 03:01:54;;;;;;;3.55;2.10;;;31.10;99.90;;;;;;4134232;28;20078;-68
2022/07/24 03:03:59;;;;;;;4.90;2.80;;;31.00;99.90;;;;;;4137319;28;20056;-67
2022/07/24 03:06:06;;;;;;;4.63;2.58;;;30.90;99.90;;;;;;4139921;28;20729;-68
2022/07/24 03:08:21;;;;;;;4.32;2.08;;;31.00;99.90;;;;;;4143204;28;20069;-68
2022/07/24 03:10:26;;;;;;;4.50;2.42;;;31.00;99.90;;;;;;4141084;28;20133;-67
2022/07/24 03:12:31;;;;;;;5.32;2.33;;;31.00;99.90;;;;;;4142509;28;20042;-67
2022/07/24 03:14:37;;;;;;;6.07;2.50;;;31.20;99.90;;;;;;4138367;28;20069;-67
2022/07/24 03:16:45;;;;;;;3.10;2.28;;;31.20;99.90;;;;;;4131141;28;20058;-67
2022/07/24 03:18:51;;;;;;;4.10;2.45;;;31.20;99.90;;;;;;4129081;28;20053;-68
2022/07/24 03:20:56;;;;;;;4.85;2.42;;;31.30;99.90;;;;;;4130520;28;20042;-67
2022/07/24 03:23:03;;;;;;;6.47;3.42;;;31.40;99.90;;;;;;4130711;28;20060;-68
2022/07/24 03:25:10;;;;;;;5.93;2.50;;;31.60;99.90;;;;;;4130003;28;20053;-69
2022/07/24 03:27:15;;;;;;;4.28;2.60;;;31.70;99.90;;;;;;4133821;28;20121;-68
2022/07/24 03:29:34;;;;;;;4.25;2.53;;;31.60;99.90;;;;;;4139730;28;20049;-68
2022/07/24 03:31:44;;;;;;;2.95;2.38;;;31.60;99.90;;;;;;4139940;28;20093;-67
2022/07/24 03:33:49;;;;;;;4.22;2.20;;;31.70;99.90;;;;;;4138461;28;20038;-68
2022/07/24 03:35:55;;;;;;;5.38;2.80;;;32.00;99.90;;;;;;4129902;28;20097;-69
2022/07/24 03:38:02;;;;;;;3.83;2.58;;;32.20;99.90;;;;;;4127756;28;20158;-68
2022/07/24 03:40:07;;;;;;;3.72;2.50;;;32.30;99.90;;;;;;4130532;28;20053;-68
2022/07/24 03:42:14;;;;;;;4.60;2.92;;;32.30;99.90;;;;;;4132577;28;20074;-68
2022/07/24 03:44:19;;;;;;;2.97;2.50;;;32.40;99.90;;;;;;4137464;28;20129;-70
2022/07/24 03:46:23;;;;;;;4.43;2.58;;;32.50;99.90;;;;;;4136489;28;20068;-70
2022/07/24 03:48:28;;;;;;;2.83;2.17;;;32.50;99.90;;;;;;4137250;28;20046;-69
2022/07/24 03:50:35;;;;;;;3.63;2.20;;;32.70;99.90;;;;;;4133115;28;20053;-70
2022/07/24 03:52:39;;;;;;;4.60;2.22;;;32.30;99.90;;;;;;4135740;28;20049;-68
2022/07/24 03:54:49;;;;;;;4.63;2.40;;;32.50;99.90;;;;;;4110110;28;20051;-68
2022/07/24 03:56:54;;;;;;;4.43;2.50;;;32.70;99.90;;;;;;4132790;28;20038;-66
2022/07/24 03:58:59;;;;;;;5.18;2.40;;;32.90;99.90;;;;;;4132724;28;20046;-69
2022/07/24 04:01:06;;;;;;;7.68;2.65;;;33.00;99.90;;;;;;4163380;28;20129;-65
2022/07/24 04:03:12;;;;;;;4.20;2.38;;;33.30;99.90;;;;;;4139335;28;20053;-65
2022/07/24 04:05:17;;;;;;;3.50;2.22;;;33.30;99.90;;;;;;4138312;28;20070;-65
2022/07/24 04:07:22;;;;;;;4.57;2.50;;;33.10;99.90;;;;;;4140018;28;20166;-66
2022/07/24 04:09:28;;;;;;;3.15;2.22;;;33.20;99.90;;;;;;4137087;28;20042;-66
2022/07/24 04:11:34;;;;;;;3.35;2.35;;;33.30;99.90;;;;;;4133568;28;20435;-65
2022/07/24 04:13:41;;;;;;;3.58;2.00;;;33.30;99.90;;;;;;4136668;28;20064;-67
2022/07/24 04:15:48;;;;;;;3.83;2.55;;;33.40;99.90;;;;;;4132485;28;20116;-66
2022/07/24 04:17:53;;;;;;;4.03;1.98;;;33.70;99.90;;;;;;4134779;28;20042;-66
2022/07/24 04:19:57;;;;;;;2.55;2.00;;;33.80;99.90;;;;;;4136690;28;20048;-65
2022/07/24 04:22:01;;;;;;;3.38;2.22;;;33.90;99.90;;;;;;4137715;28;20042;-65
2022/07/24 04:24:08;;;;;;;3.38;2.20;;;33.90;99.90;;;;;;4126736;28;20053;-64
2022/07/24 04:26:15;;;;;;;4.40;2.50;;;34.00;99.90;;;;;;4125531;28;20050;-65
2022/07/24 04:28:20;;;;;;;3.08;2.30;;;33.80;99.90;;;;;;4129181;28;20042;-65
2022/07/24 04:30:24;;;;;;;5.35;2.40;;;33.40;99.90;;;;;;4129247;28;20034;-66
2022/07/24 04:32:31;;;;;;;4.88;2.25;;;33.20;99.90;;;;;;4128733;28;20780;-64
2022/07/24 04:34:38;;;;;;;2.35;1.80;;;33.10;99.90;;;;;;4130783;28;20092;-63
2022/07/24 04:36:45;;;;;;;2.42;1.90;;;33.20;99.90;;;;;;4128174;28;20161;-65
2022/07/24 04:38:52;;;;;;;4.35;2.50;;;33.30;99.90;;;;;;4125850;28;20045;-65
2022/07/24 04:40:59;;;;;;;2.83;2.10;;;33.30;99.90;;;;;;4128132;28;20120;-65
2022/07/24 04:43:04;;;;;;;3.53;2.58;;;33.20;99.90;;;;;;4128678;28;20453;-64
2022/07/24 04:45:09;;;;;;;3.10;2.28;;;32.90;99.90;;;;;;4143668;28;20134;-64
2022/07/24 04:47:14;;;;;;;8.52;3.40;;;32.70;99.90;;;;;;4128490;28;20389;-64
2022/07/24 04:49:18;;;;;;;6.00;3.08;;;32.60;99.90;;;;;;4128245;28;20575;-64
2022/07/24 04:51:23;;;;;;;5.20;2.83;;;32.60;99.90;;;;;;4127581;28;20199;-65
2022/07/24 04:53:30;;;;;;;4.13;2.58;;;32.40;99.90;;;;;;4131371;28;20047;-65
2022/07/24 04:55:35;;;;;;;3.83;2.80;;;32.30;99.90;;;;;;4127080;28;20039;-64
2022/07/24 04:57:41;;;;;;;4.88;2.45;;;32.10;99.90;;;;;;4128943;28;20042;-65
2022/07/24 04:59:46;;;;;;;4.40;2.60;;;31.90;99.90;;;;;;4127134;28;20051;-64
2022/07/24 05:01:51;;;;;;;3.70;2.70;;;32.00;99.90;;;;;;4127097;28;20065;-64
2022/07/24 05:04:00;;;;;;;4.72;2.60;;;31.80;99.90;;;;;;4135391;28;20077;-64
2022/07/24 05:06:07;;;;;;;4.15;2.53;;;31.70;99.90;;;;;;4055935;28;2259798;-64
2022/07/24 05:08:11;;;;;;;4.22;2.40;;;31.70;99.90;;;;;;4128017;28;20053;-63
2022/07/24 05:10:18;;;;;;;4.85;2.15;;;31.70;99.90;;;;;;4125320;28;20056;-64
2022/07/24 05:12:26;;;;;;;4.43;2.55;;;31.90;99.90;;;;;;4127677;28;20049;-63
2022/07/24 05:14:31;;;;;;;5.57;2.38;;;32.00;99.90;;;;;;4127490;28;20050;-63
2022/07/24 05:16:38;;;;;;;5.43;2.30;;;32.10;99.90;;;;;;4133429;28;20037;-64
2022/07/24 05:18:46;;;;;;;5.03;2.40;;;32.00;99.90;;;;;;4134240;28;20504;-63
2022/07/24 05:20:52;;;;;;;4.20;2.50;;;32.00;99.90;;;;;;4134241;28;20082;-63
2022/07/24 05:22:58;;;;;;;4.28;2.30;;;32.00;99.90;;;;;;4139314;28;20050;-63
2022/07/24 05:25:05;;;;;;;3.92;2.40;;;32.30;99.90;;;;;;4138972;28;20045;-63
2022/07/24 05:27:11;;;;;;;4.80;2.40;;;32.30;99.90;;;;;;4131142;28;20046;-64
2022/07/24 05:29:16;;;;;;;4.72;2.20;;;32.60;99.90;;;;;;4125656;28;20030;-65
2022/07/24 05:31:21;;;;;;;4.82;2.60;;;33.00;99.90;;;;;;4127450;28;20045;-65
2022/07/24 05:33:32;;;;;;;2.30;1.77;;;33.10;99.90;;;;;;4131518;28;20465;-66
2022/07/24 05:35:53;;;;;;;3.42;2.25;;;32.80;99.90;;;;;;4130956;28;20112;-65
2022/07/24 05:37:58;;;;;;;2.65;2.08;;;32.50;99.90;;;;;;4135496;28;20045;-65
2022/07/24 05:40:03;;;;;;;2.97;2.00;;;32.60;99.90;;;;;;4157077;28;20574;-66
2022/07/24 05:42:10;;;;;;;4.03;2.20;;;32.70;99.50;;;;;;4131519;28;20523;-65
2022/07/24 05:44:18;;;;;;;5.25;2.50;;;32.80;99.70;;;;;;4136411;28;20034;-65
2022/07/24 05:46:33;;;;;;;4.50;2.13;;;33.00;99.40;;;;;;4131710;28;20041;-65
2022/07/24 05:48:39;;;;;;;4.82;2.20;;;32.90;99.80;;;;;;4132996;28;20046;-65
2022/07/24 05:50:44;;;;;;;2.75;2.13;;;32.80;99.60;;;;;;4127991;28;20042;-65
2022/07/24 05:52:48;;;;;;;3.05;2.20;;;32.60;99.10;;;;;;4137698;28;20050;-64
2022/07/24 05:54:53;;;;;;;3.03;2.20;;;32.50;99.90;;;;;;4127716;28;20109;-65
2022/07/24 05:56:58;;;;;;;4.30;1.75;;;32.30;99.90;;;;;;4126926;28;20042;-64
2022/07/24 05:59:02;;;;;;;3.28;1.90;;;32.20;99.90;;;;;;4132475;28;20649;-65
2022/07/24 06:01:07;;;;;;;2.58;1.80;;;32.30;99.90;;;;;;4127418;28;20042;-65
2022/07/24 06:03:13;;;;;;;4.22;1.73;;;32.30;99.90;;;;;;4125699;28;20169;-64
2022/07/24 06:05:18;;;;;;;3.30;2.00;;;32.30;99.50;;;;;;4126850;28;20058;-64
2022/07/24 06:07:23;;;;;;;4.28;1.70;;;32.10;99.20;;;;;;4127311;28;20050;-65
2022/07/24 06:09:28;;;;;;;2.22;1.40;;;32.00;99.00;;;;;;4126594;28;20476;-65
2022/07/24 06:11:41;;;;;;;6.15;1.77;;;31.90;98.90;;;;;;4124457;28;20064;-65
2022/07/24 06:13:49;;;;;;;2.75;1.55;;;31.80;99.30;;;;;;4108982;28;20050;-64
2022/07/24 06:15:53;;;;;;;2.58;1.75;;;31.80;99.40;;;;;;4125431;28;20593;-64
2022/07/24 06:17:58;;;;;;;2.90;1.52;;;31.80;98.90;;;;;;4127474;28;20042;-64
2022/07/24 06:20:04;;;;;;;5.70;2.28;;;31.80;99.00;;;;;;4127382;28;20101;-65
2022/07/24 06:22:09;;;;;;;2.83;1.60;;;31.80;98.80;;;;;;4127546;28;20081;-65
2022/07/24 06:24:13;;;;;;;3.50;2.00;;;31.80;98.80;;;;;;4125182;28;20073;-64
2022/07/24 06:26:18;;;;;;;5.10;1.30;;;31.80;98.60;;;;;;4127276;28;20073;-65
2022/07/24 06:28:22;;;;;;;4.88;1.70;;;31.80;99.30;;;;;;4127517;28;20106;-63
2022/07/24 06:30:28;;;;;;;6.93;2.22;;;31.90;98.70;;;;;;4126579;28;20154;-64
2022/07/24 06:32:34;;;;;;;4.75;1.65;;;31.80;98.70;;;;;;4126032;28;20045;-65
2022/07/24 06:34:39;;;;;;;3.40;1.58;;;31.80;98.80;;;;;;4126761;28;20046;-64
2022/07/24 06:36:44;;;;;;;3.78;1.80;;;31.90;99.00;;;;;;4126873;28;20065;-65
2022/07/24 06:38:50;;;;;;;3.25;1.70;;;31.90;99.30;;;;;;4124941;28;20058;-65
2022/07/24 06:40:54;;;;;;;2.90;1.70;;;32.10;99.40;;;;;;4126266;28;20923;-65
2022/07/24 06:42:59;;;;;;;3.47;1.50;;;32.10;98.50;;;;;;4124847;28;20042;-64
2022/07/24 06:45:18;;;;;;;3.42;1.55;;;32.10;98.40;;;;;;4126643;28;20054;-63
2022/07/24 06:47:26;;;;;;;2.60;1.40;;;31.90;98.20;;;;;;4140160;28;20072;-63
2022/07/24 06:49:30;;;;;;;2.30;1.25;;;31.90;98.10;;;;;;4127366;28;20058;-63
2022/07/24 06:51:37;;;;;;;3.33;1.50;;;31.90;98.20;;;;;;4122921;28;20048;-64
2022/07/24 06:53:46;;;;;;;3.30;1.50;;;31.80;97.90;;;;;;4127145;28;20060;-64
2022/07/24 06:55:55;;;;;;;2.55;1.10;;;31.80;97.90;;;;;;4124209;28;20131;-64
2022/07/24 06:57:59;;;;;;;4.13;1.48;;;31.90;98.30;;;;;;4125896;28;20053;-63
2022/07/24 07:00:06;;;;;;;2.65;1.50;;;31.90;98.30;;;;;;4127333;28;20069;-63
2022/07/24 07:02:11;;;;;;;2.17;1.40;;;31.80;97.60;;;;;;4127241;28;20088;-64
2022/07/24 07:04:22;;;;;;;2.88;1.40;;;31.80;97.50;;;;;;4129803;28;20547;-64
2022/07/24 07:06:32;;;;;;;2.45;1.27;;;31.80;97.80;;;;;;4125823;28;20046;-63
2022/07/24 07:08:40;;;;;;;4.22;1.50;;;32.00;97.60;;;;;;4130783;28;20460;-64
2022/07/24 07:10:45;;;;;;;3.15;1.40;;;31.90;97.70;;;;;;4129268;28;20512;-64
2022/07/24 07:12:50;;;;;;;3.45;1.55;;;32.10;97.90;;;;;;4133596;28;20116;-64
2022/07/24 07:14:55;;;;;;;2.58;1.30;;;32.20;97.80;;;;;;4133484;28;20045;-64
2022/07/24 07:17:00;;;;;;;3.80;1.48;;;32.30;97.80;;;;;;4133214;28;20046;-64
2022/07/24 07:19:09;;;;;;;5.90;1.45;;;32.50;97.90;;;;;;4152672;28;20128;-65
2022/07/24 07:21:24;;;;;;;2.95;1.63;;;32.50;97.60;;;;;;4128530;28;20054;-64
2022/07/24 07:23:28;;;;;;;3.85;1.15;;;32.80;97.40;;;;;;4132594;28;20042;-65
2022/07/24 07:25:35;;;;;;;2.47;1.15;;;33.00;97.40;;;;;;4123415;28;20050;-65
2022/07/24 07:27:41;;;;;;;1.98;1.23;;;33.20;97.40;;;;;;4129681;28;20129;-64
2022/07/24 07:29:45;;;;;;;1.90;1.27;;;33.20;97.10;;;;;;4132119;28;20049;-65
2022/07/24 07:31:50;;;;;;;2.67;1.38;;;33.20;96.90;;;;;;4131731;28;20137;-65
2022/07/24 07:33:54;;;;;;;5.07;1.40;;;33.10;96.60;;;;;;4130904;28;20153;-64
2022/07/24 07:36:02;;;;;;;3.25;1.38;;;33.00;97.10;;;;;;4131869;28;20046;-64
2022/07/24 07:38:10;;;;;;;2.85;1.40;;;32.80;96.90;;;;;;4159474;28;20819;-65
2022/07/24 07:40:15;;;;;;;4.18;1.50;;;32.70;96.80;;;;;;4158674;28;20564;-64
2022/07/24 07:42:19;;;;;;;3.97;1.50;;;32.60;97.10;;;;;;4131140;28;20100;-64
2022/07/24 07:44:24;;;;;;;2.45;1.58;;;32.50;97.60;;;;;;4134029;28;20048;-63
2022/07/24 07:46:29;;;;;;;4.88;1.70;;;32.50;98.20;;;;;;4134258;28;20038;-63
2022/07/24 07:48:34;;;;;;;4.38;1.80;;;32.40;98.10;;;;;;4132187;28;20039;-64
2022/07/24 07:50:39;;;;;;;3.40;1.90;;;32.30;98.30;;;;;;4130910;28;20046;-63
2022/07/24 07:52:44;;;;;;;3.67;1.83;;;32.20;98.50;;;;;;4139662;28;20085;-64
2022/07/24 07:54:51;;;;;;;3.83;1.90;;;32.00;98.50;;;;;;4136368;28;20042;-63
2022/07/24 07:56:58;;;;;;;4.95;2.00;;;32.00;98.90;;;;;;4139702;28;20096;-63
2022/07/24 07:59:02;;;;;;;6.20;1.83;;;31.90;99.10;;;;;;4135828;28;20075;-62
2022/07/24 08:01:09;;;;;;;3.35;1.85;;;31.90;99.40;;;;;;4132005;28;20049;-64
2022/07/24 08:03:14;;;;;;;4.97;2.22;;;31.90;99.70;;;;;;4136191;28;20293;-63
2022/07/24 08:05:24;;;;;;;5.72;2.60;;;32.00;99.90;;;;;;4138232;28;20111;-64
2022/07/24 08:07:29;;;;;;;9.02;3.25;;;31.90;99.90;;;;;;4164812;28;20480;-64
2022/07/24 08:09:37;;;;;;;6.55;3.17;;;31.80;99.90;;;;;;4137007;28;20400;-64
2022/07/24 08:11:41;;;;;;;7.63;6.38;;;31.70;99.90;;;;;;4135960;28;20042;-64
2022/07/24 08:13:48;;;;;;;5.68;4.00;;;31.60;99.90;;;;;;4127294;28;20304;-64
2022/07/24 08:15:52;;;;;;;8.02;3.00;;;31.50;99.90;;;;;;4123596;28;20529;-64
2022/07/24 08:17:57;;;;;;;6.18;2.80;;;31.30;99.90;;;;;;4127649;28;20549;-64
2022/07/24 08:20:04;;;;;;;9.77;2.70;;;30.90;99.90;;;;;;4125072;28;20046;-64
2022/07/24 08:22:11;;;;;;;12.25;3.40;;;30.70;99.90;;;;;;4123976;28;20426;-65
2022/07/24 08:24:20;;;;;;;13.95;3.97;;;30.20;99.90;;;;;;4127239;28;20046;-65
2022/07/24 08:26:30;;;;;;;11.35;4.28;;;30.00;99.90;;;;;;4128394;28;20108;-64
2022/07/24 08:28:37;;;;;;;11.88;4.35;;;30.00;99.90;;;;;;4123665;28;20039;-64
2022/07/24 08:30:42;;;;;;;16.20;5.00;;;29.90;99.90;;;;;;4125433;28;20043;-64
2022/07/24 08:32:51;;;;;;;11.90;3.88;;;29.90;99.90;;;;;;4121926;28;20072;-64
2022/07/24 08:34:59;;;;;;;10.40;3.30;;;29.50;99.90;;;;;;4126652;28;20038;-62
2022/07/24 08:37:05;;;;;;;7.65;3.38;;;29.10;99.90;;;;;;4128345;28;20354;-63
2022/07/24 08:39:11;;;;;;;8.27;3.33;;;29.10;99.90;;;;;;4127560;28;20049;-63
2022/07/24 08:41:32;;;;;;;8.88;4.35;;;29.10;99.90;;;;;;4128598;28;20046;-63
2022/07/24 08:43:37;;;;;;;8.20;4.55;;;29.00;99.90;;;;;;4128050;28;20039;-63
2022/07/24 08:45:43;;;;;;;10.68;4.40;;;29.00;99.90;;;;;;4127991;28;20058;-63
2022/07/24 08:47:50;;;;;;;7.57;4.38;;;29.20;99.90;;;;;;4128536;28;20493;-63
2022/07/24 08:49:55;;;;;;;10.32;4.32;;;29.40;99.90;;;;;;4126338;28;20341;-64
2022/07/24 08:52:01;;;;;;;9.23;3.88;;;29.30;99.90;;;;;;4127283;28;20425;-63
2022/07/24 08:54:08;;;;;;;8.32;3.67;;;29.20;99.90;;;;;;4128392;28;20062;-64
2022/07/24 08:56:13;;;;;;;6.65;3.08;;;29.30;99.90;;;;;;4130277;28;20486;-63
2022/07/24 08:58:17;;;;;;;7.50;3.30;;;29.30;99.90;;;;;;4132074;28;20370;-63
2022/07/24 09:00:23;;;;;;;6.88;3.60;;;29.40;99.90;;;;;;4131417;28;20108;-62
2022/07/24 09:02:27;;;;;;;8.15;3.95;;;29.40;99.90;;;;;;4130905;28;20237;-62
2022/07/24 09:04:45;;;;;;;7.90;3.28;;;29.20;99.90;;;;;;4132131;28;20053;-63
2022/07/24 09:06:59;;;;;;;6.53;3.50;;;29.00;99.90;;;;;;4131779;28;20080;-63
2022/07/24 09:09:05;;;;;;;8.05;3.70;;;29.30;99.90;;;;;;4131276;28;20057;-65
2022/07/24 09:11:10;;;;;;;7.07;3.47;;;29.40;99.90;;;;;;4131392;28;20062;-64
2022/07/24 09:13:24;;;;;;;8.77;3.80;;;29.40;99.90;;;;;;4127069;28;20074;-64
2022/07/24 09:15:30;;;;;;;6.30;3.78;;;29.30;99.90;;;;;;4131739;28;20129;-65
2022/07/24 09:17:34;;;;;;;5.32;3.25;;;29.30;99.90;;;;;;4135964;28;20061;-65
2022/07/24 09:20:00;;;;;;;6.05;3.53;;;29.10;99.90;;;;;;4131569;28;20149;-64
2022/07/24 09:22:04;;;;;;;8.48;3.40;;;29.10;99.90;;;;;;4128805;28;20050;-65
2022/07/24 09:24:20;;;;;;;6.63;3.15;;;29.30;99.90;;;;;;4128423;28;20382;-65
2022/07/24 09:26:49;;;;;;;7.68;3.67;;;29.30;99.90;;;;;;4131687;28;20046;-65
2022/07/24 09:28:54;;;;;;;6.90;4.50;;;29.30;99.90;;;;;;4153771;28;20123;-65
2022/07/24 09:31:02;;;;;;;7.90;3.90;;;29.30;99.90;;;;;;4126484;28;20117;-65
2022/07/24 09:33:27;;;;;;;7.78;3.70;;;29.30;99.90;;;;;;4134478;28;20042;-65
2022/07/24 09:35:37;;;;;;;5.75;3.20;;;29.30;99.90;;;;;;4129049;28;20039;-64
2022/07/24 09:37:54;;;;;;;8.65;3.78;;;29.20;99.90;;;;;;4127856;28;20046;-64
2022/07/24 09:40:17;;;;;;;7.00;3.55;;;29.20;99.90;;;;;;4130300;28;20449;-64
2022/07/24 09:42:29;;;;;;;7.18;4.20;;;29.20;99.90;;;;;;4128172;28;20097;-65
2022/07/24 09:44:37;;;;;;;8.50;4.47;;;29.20;99.90;;;;;;4161676;28;20045;-64
2022/07/24 09:46:48;;;;;;;8.48;5.00;;;29.30;99.90;;;;;;4137131;28;20453;-64
2022/07/24 09:48:56;;;;;;;7.20;4.55;;;29.30;99.90;;;;;;4137018;28;20133;-66
2022/07/24 09:51:22;;;;;;;8.88;4.50;;;29.20;99.90;;;;;;4125450;28;20053;-64
2022/07/24 09:53:27;;;;;;;;;;;29.20;99.90;;;;;;4129318;28;20046;-64
2022/07/24 09:55:33;;;;;;;6.28;4.32;;;29.30;99.90;;;;;;4127024;28;20443;-63
2022/07/24 09:57:40;;;;;;;7.13;4.30;;;29.40;99.90;;;;;;4107361;28;20079;-64
2022/07/24 10:00:06;;;;;;;7.60;4.90;;;29.40;99.90;;;;;;4127027;28;20065;-65
2022/07/24 10:02:12;;;;;;;7.47;4.50;;;29.30;99.90;;;;;;4123555;28;20525;-63
2022/07/24 10:04:19;;;;;;;5.75;4.25;;;29.20;99.90;;;;;;4127603;28;20057;-64
2022/07/24 10:06:26;;;;;;;6.88;4.68;;;29.20;99.90;;;;;;4126630;28;20062;-67
2022/07/24 10:08:31;;;;;;;5.97;4.28;;;29.20;99.90;;;;;;4127382;28;20057;-64
2022/07/24 10:10:36;;;;;;;7.95;5.22;;;29.30;99.90;;;;;;4124085;28;20052;-65
2022/07/24 10:12:42;;;;;;;11.70;7.88;;;29.30;99.90;;;;;;4125577;28;20054;-67
2022/07/24 10:14:48;;;;;;;10.07;7.68;;;29.20;99.90;;;;;;4146881;28;20065;-65
2022/07/24 10:17:15;;;;;;;10.07;8.18;;;29.20;99.90;;;;;;4131369;28;20042;-63
2022/07/24 10:19:28;;;;;;;8.55;6.60;;;29.20;99.90;;;;;;4134521;28;20056;-64
2022/07/24 10:21:35;;;;;;;6.18;5.18;;;29.00;99.90;;;;;;4131913;28;20088;-64
2022/07/24 10:24:14;;;;;;;7.07;5.68;;;29.00;99.90;;;;;;4085277;29;20541;-63
2022/07/24 10:29:13;;;;;;;8.18;5.95;;;29.00;99.90;;;;;;4106478;28;20526;-64
2022/07/24 10:31:18;;;;;;;7.75;5.55;;;28.60;99.90;;;;;;4126207;28;20072;-64
2022/07/24 10:33:24;;;;;;;8.07;5.18;;;28.60;99.90;;;;;;4139488;28;20042;-66
2022/07/24 10:35:32;;;;;;;9.85;4.57;;;28.70;99.90;;;;;;4124014;28;20046;-65
2022/07/24 10:38:12;;;;;;;8.18;5.03;;;28.50;99.90;;;;;;4128452;28;20050;-65
2022/07/24 10:40:45;;;;;;;7.60;4.53;;;28.50;99.90;;;;;;4132373;28;20057;-64
2022/07/24 10:43:20;;;;;;;8.65;5.53;;;28.50;99.90;;;;;;4134028;28;20503;-64
2022/07/24 10:45:29;;;;;;;8.52;4.68;;;28.50;99.90;;;;;;4126689;28;20066;-64
2022/07/24 10:47:55;;;;;;;6.55;3.20;;;28.60;99.90;;;;;;4133170;28;20120;-65
2022/07/24 10:50:22;;;;;;;3.67;2.42;;;28.70;99.90;;;;;;4135356;28;20372;-65
2022/07/24 10:52:46;;;;;;;4.72;1.80;;;28.70;99.90;;;;;;4135992;28;20082;-65
2022/07/24 10:55:40;;;;;;;2.92;1.58;;;28.70;99.90;;;;;;4138722;28;20128;-65
2022/07/24 10:58:15;;;;;;;3.83;1.63;;;28.60;99.90;;;;;;4158803;28;20057;-64
2022/07/24 11:00:49;;;;;;;2.72;1.50;;;28.60;99.90;;;;;;4164029;28;20085;-66
2022/07/24 11:03:34;;;;;;;3.85;1.55;;;28.70;99.90;;;;;;4148996;28;20065;-66
2022/07/24 11:06:18;;;;;;;3.83;1.60;;;28.60;99.90;;;;;;4125098;28;20116;-66
2022/07/24 11:08:52;;;;;;;3.85;1.85;;;28.50;99.90;;;;;;4122537;28;20148;-66